sensor_id;sensor_type;location;lat;lon;timestamp;P1;durP1;ratioP1;P2;durP2;ratioP2
81619;SDS011;71028;53.410;6.710;2023-12-20T00:01:40;4.90;;;0.98;;
81619;SDS011;71028;53.410;6.710;2023-12-20T00:04:06;3.35;;;1.20;;
81619;SDS011;71028;53.410;6.710;2023-12-20T00:06:32;9.88;;;1.48;;
81619;SDS011;71028;53.410;6.710;2023-12-20T00:08:58;5.55;;;1.63;;
81619;SDS011;71028;53.410;6.710;2023-12-20T00:11:24;7.80;;;1.40;;
81619;SDS011;71028;53.410;6.710;2023-12-20T00:13:50;5.93;;;1.85;;
81619;SDS011;71028;53.410;6.710;2023-12-20T00:16:16;5.47;;;1.40;;
81619;SDS011;71028;53.410;6.710;2023-12-20T00:18:43;7.72;;;1.63;;
81619;SDS011;71028;53.410;6.710;2023-12-20T00:21:09;14.80;;;2.03;;
81619;SDS011;71028;53.410;6.710;2023-12-20T00:23:35;7.85;;;1.85;;
81619;SDS011;71028;53.410;6.710;2023-12-20T00:26:03;7.50;;;1.60;;
81619;SDS011;71028;53.410;6.710;2023-12-20T00:28:29;4.07;;;1.38;;
81619;SDS011;71028;53.410;6.710;2023-12-20T00:30:55;7.85;;;1.77;;
81619;SDS011;71028;53.410;6.710;2023-12-20T00:33:21;6.32;;;1.20;;
81619;SDS011;71028;53.410;6.710;2023-12-20T00:35:47;8.23;;;1.50;;
81619;SDS011;71028;53.410;6.710;2023-12-20T00:38:14;9.10;;;1.58;;
81619;SDS011;71028;53.410;6.710;2023-12-20T00:40:40;12.00;;;2.75;;
81619;SDS011;71028;53.410;6.710;2023-12-20T00:43:06;5.80;;;1.20;;
81619;SDS011;71028;53.410;6.710;2023-12-20T00:45:32;6.82;;;1.60;;
81619;SDS011;71028;53.410;6.710;2023-12-20T00:47:58;11.77;;;1.70;;
81619;SDS011;71028;53.410;6.710;2023-12-20T00:50:24;7.47;;;1.17;;
81619;SDS011;71028;53.410;6.710;2023-12-20T00:52:50;7.22;;;2.05;;
81619;SDS011;71028;53.410;6.710;2023-12-20T00:55:16;9.00;;;1.63;;
81619;SDS011;71028;53.410;6.710;2023-12-20T00:57:42;6.75;;;1.88;;
81619;SDS011;71028;53.410;6.710;2023-12-20T01:00:08;6.88;;;1.40;;
81619;SDS011;71028;53.410;6.710;2023-12-20T01:02:38;7.30;;;1.92;;
81619;SDS011;71028;53.410;6.710;2023-12-20T01:05:04;9.43;;;1.73;;
81619;SDS011;71028;53.410;6.710;2023-12-20T01:07:32;4.18;;;0.80;;
81619;SDS011;71028;53.410;6.710;2023-12-20T01:09:58;4.32;;;1.05;;
81619;SDS011;71028;53.410;6.710;2023-12-20T01:12:24;8.32;;;1.20;;
81619;SDS011;71028;53.410;6.710;2023-12-20T01:14:50;5.65;;;1.00;;
81619;SDS011;71028;53.410;6.710;2023-12-20T01:17:16;4.05;;;1.13;;
81619;SDS011;71028;53.410;6.710;2023-12-20T01:19:42;5.47;;;1.80;;
81619;SDS011;71028;53.410;6.710;2023-12-20T01:22:08;8.25;;;1.85;;
81619;SDS011;71028;53.410;6.710;2023-12-20T01:24:34;3.85;;;1.05;;
81619;SDS011;71028;53.410;6.710;2023-12-20T01:27:00;6.13;;;1.25;;
81619;SDS011;71028;53.410;6.710;2023-12-20T01:29:26;8.82;;;1.02;;
81619;SDS011;71028;53.410;6.710;2023-12-20T01:31:52;4.57;;;1.08;;
81619;SDS011;71028;53.410;6.710;2023-12-20T01:34:18;7.13;;;1.40;;
81619;SDS011;71028;53.410;6.710;2023-12-20T01:36:44;3.70;;;1.55;;
81619;SDS011;71028;53.410;6.710;2023-12-20T01:39:10;5.93;;;1.00;;
81619;SDS011;71028;53.410;6.710;2023-12-20T01:41:36;5.95;;;1.70;;
81619;SDS011;71028;53.410;6.710;2023-12-20T01:44:02;6.72;;;1.50;;
81619;SDS011;71028;53.410;6.710;2023-12-20T01:46:29;5.47;;;1.20;;
81619;SDS011;71028;53.410;6.710;2023-12-20T01:48:55;7.60;;;1.65;;
81619;SDS011;71028;53.410;6.710;2023-12-20T01:51:21;8.05;;;1.50;;
81619;SDS011;71028;53.410;6.710;2023-12-20T01:53:47;4.07;;;1.20;;
81619;SDS011;71028;53.410;6.710;2023-12-20T01:56:14;7.03;;;1.80;;
81619;SDS011;71028;53.410;6.710;2023-12-20T01:58:44;6.97;;;1.58;;
81619;SDS011;71028;53.410;6.710;2023-12-20T02:01:11;8.25;;;1.55;;
81619;SDS011;71028;53.410;6.710;2023-12-20T02:03:37;8.82;;;2.08;;
81619;SDS011;71028;53.410;6.710;2023-12-20T02:06:04;8.88;;;1.50;;
81619;SDS011;71028;53.410;6.710;2023-12-20T02:08:30;4.80;;;1.50;;
81619;SDS011;71028;53.410;6.710;2023-12-20T02:10:56;14.27;;;2.05;;
81619;SDS011;71028;53.410;6.710;2023-12-20T02:13:22;9.07;;;1.65;;
81619;SDS011;71028;53.410;6.710;2023-12-20T02:15:48;9.88;;;1.90;;
81619;SDS011;71028;53.410;6.710;2023-12-20T02:18:14;10.00;;;2.05;;
81619;SDS011;71028;53.410;6.710;2023-12-20T02:20:41;7.53;;;1.33;;
81619;SDS011;71028;53.410;6.710;2023-12-20T02:23:07;9.30;;;2.40;;
81619;SDS011;71028;53.410;6.710;2023-12-20T02:25:33;7.00;;;1.52;;
81619;SDS011;71028;53.410;6.710;2023-12-20T02:27:59;11.35;;;2.22;;
81619;SDS011;71028;53.410;6.710;2023-12-20T02:30:26;6.32;;;1.67;;
81619;SDS011;71028;53.410;6.710;2023-12-20T02:32:52;7.55;;;1.63;;
81619;SDS011;71028;53.410;6.710;2023-12-20T02:35:18;13.10;;;2.72;;
81619;SDS011;71028;53.410;6.710;2023-12-20T02:37:44;10.02;;;1.75;;
81619;SDS011;71028;53.410;6.710;2023-12-20T02:40:10;5.72;;;1.50;;
81619;SDS011;71028;53.410;6.710;2023-12-20T02:42:37;9.25;;;2.25;;
81619;SDS011;71028;53.410;6.710;2023-12-20T02:45:03;15.85;;;2.40;;
81619;SDS011;71028;53.410;6.710;2023-12-20T02:47:29;7.47;;;1.83;;
81619;SDS011;71028;53.410;6.710;2023-12-20T02:49:55;9.77;;;1.92;;
81619;SDS011;71028;53.410;6.710;2023-12-20T02:52:22;10.65;;;2.50;;
81619;SDS011;71028;53.410;6.710;2023-12-20T02:54:48;8.77;;;2.15;;
81619;SDS011;71028;53.410;6.710;2023-12-20T02:57:14;6.50;;;1.58;;
81619;SDS011;71028;53.410;6.710;2023-12-20T02:59:40;8.13;;;2.05;;
81619;SDS011;71028;53.410;6.710;2023-12-20T03:02:07;6.35;;;2.03;;
81619;SDS011;71028;53.410;6.710;2023-12-20T03:04:33;10.48;;;1.80;;
81619;SDS011;71028;53.410;6.710;2023-12-20T03:06:59;8.13;;;1.67;;
81619;SDS011;71028;53.410;6.710;2023-12-20T03:09:25;8.07;;;1.55;;
81619;SDS011;71028;53.410;6.710;2023-12-20T03:11:51;9.57;;;2.33;;
81619;SDS011;71028;53.410;6.710;2023-12-20T03:14:17;7.47;;;2.17;;
81619;SDS011;71028;53.410;6.710;2023-12-20T03:16:46;13.50;;;2.05;;
81619;SDS011;71028;53.410;6.710;2023-12-20T03:19:12;19.38;;;2.65;;
81619;SDS011;71028;53.410;6.710;2023-12-20T03:21:38;11.82;;;2.75;;
81619;SDS011;71028;53.410;6.710;2023-12-20T03:24:04;16.17;;;2.45;;
81619;SDS011;71028;53.410;6.710;2023-12-20T03:26:30;9.25;;;2.35;;
81619;SDS011;71028;53.410;6.710;2023-12-20T03:28:56;14.85;;;2.90;;
81619;SDS011;71028;53.410;6.710;2023-12-20T03:31:22;14.85;;;2.33;;
81619;SDS011;71028;53.410;6.710;2023-12-20T03:33:48;15.40;;;2.83;;
81619;SDS011;71028;53.410;6.710;2023-12-20T03:36:16;14.77;;;3.42;;
81619;SDS011;71028;53.410;6.710;2023-12-20T03:38:42;16.33;;;2.80;;
81619;SDS011;71028;53.410;6.710;2023-12-20T03:41:08;12.80;;;3.13;;
81619;SDS011;71028;53.410;6.710;2023-12-20T03:43:34;10.35;;;2.15;;
81619;SDS011;71028;53.410;6.710;2023-12-20T03:46:00;14.85;;;2.45;;
81619;SDS011;71028;53.410;6.710;2023-12-20T03:48:28;13.77;;;3.40;;
81619;SDS011;71028;53.410;6.710;2023-12-20T03:50:54;9.85;;;2.10;;
81619;SDS011;71028;53.410;6.710;2023-12-20T03:53:20;12.65;;;2.75;;
81619;SDS011;71028;53.410;6.710;2023-12-20T03:55:46;13.65;;;2.13;;
81619;SDS011;71028;53.410;6.710;2023-12-20T03:58:12;9.68;;;1.92;;
81619;SDS011;71028;53.410;6.710;2023-12-20T04:00:38;11.63;;;2.17;;
81619;SDS011;71028;53.410;6.710;2023-12-20T04:03:04;16.02;;;2.00;;
81619;SDS011;71028;53.410;6.710;2023-12-20T04:05:30;6.57;;;2.38;;
81619;SDS011;71028;53.410;6.710;2023-12-20T04:07:57;9.57;;;2.25;;
81619;SDS011;71028;53.410;6.710;2023-12-20T04:10:24;11.48;;;2.13;;
81619;SDS011;71028;53.410;6.710;2023-12-20T04:12:50;10.77;;;2.42;;
81619;SDS011;71028;53.410;6.710;2023-12-20T04:15:16;10.75;;;2.10;;
81619;SDS011;71028;53.410;6.710;2023-12-20T04:17:42;14.27;;;2.90;;
81619;SDS011;71028;53.410;6.710;2023-12-20T04:20:08;13.52;;;2.55;;
81619;SDS011;71028;53.410;6.710;2023-12-20T04:22:34;16.48;;;2.70;;
81619;SDS011;71028;53.410;6.710;2023-12-20T04:25:00;9.52;;;2.42;;
81619;SDS011;71028;53.410;6.710;2023-12-20T04:27:26;13.30;;;2.50;;
81619;SDS011;71028;53.410;6.710;2023-12-20T04:29:52;15.70;;;3.45;;
81619;SDS011;71028;53.410;6.710;2023-12-20T04:32:18;9.35;;;2.55;;
81619;SDS011;71028;53.410;6.710;2023-12-20T04:34:44;13.48;;;2.17;;
81619;SDS011;71028;53.410;6.710;2023-12-20T04:37:10;15.07;;;3.15;;
81619;SDS011;71028;53.410;6.710;2023-12-20T04:39:37;15.55;;;2.20;;
81619;SDS011;71028;53.410;6.710;2023-12-20T04:42:03;13.02;;;2.40;;
81619;SDS011;71028;53.410;6.710;2023-12-20T04:44:29;10.65;;;3.35;;
81619;SDS011;71028;53.410;6.710;2023-12-20T04:46:55;10.68;;;2.55;;
81619;SDS011;71028;53.410;6.710;2023-12-20T04:49:22;11.82;;;2.38;;
81619;SDS011;71028;53.410;6.710;2023-12-20T04:51:48;13.93;;;2.97;;
81619;SDS011;71028;53.410;6.710;2023-12-20T04:54:14;12.35;;;2.25;;
81619;SDS011;71028;53.410;6.710;2023-12-20T04:56:41;9.65;;;2.42;;
81619;SDS011;71028;53.410;6.710;2023-12-20T04:59:07;11.60;;;2.15;;
81619;SDS011;71028;53.410;6.710;2023-12-20T05:01:33;12.77;;;2.50;;
81619;SDS011;71028;53.410;6.710;2023-12-20T05:03:59;14.20;;;2.53;;
81619;SDS011;71028;53.410;6.710;2023-12-20T05:06:25;15.52;;;2.47;;
81619;SDS011;71028;53.410;6.710;2023-12-20T05:08:51;14.68;;;2.30;;
81619;SDS011;71028;53.410;6.710;2023-12-20T05:11:17;17.58;;;2.58;;
81619;SDS011;71028;53.410;6.710;2023-12-20T05:13:43;11.95;;;2.35;;
81619;SDS011;71028;53.410;6.710;2023-12-20T05:16:09;12.73;;;2.63;;
81619;SDS011;71028;53.410;6.710;2023-12-20T05:18:35;14.50;;;2.70;;
81619;SDS011;71028;53.410;6.710;2023-12-20T05:21:01;8.88;;;2.13;;
81619;SDS011;71028;53.410;6.710;2023-12-20T05:23:27;9.98;;;2.45;;
81619;SDS011;71028;53.410;6.710;2023-12-20T05:25:53;9.65;;;2.53;;
81619;SDS011;71028;53.410;6.710;2023-12-20T05:28:19;8.52;;;2.72;;
81619;SDS011;71028;53.410;6.710;2023-12-20T05:30:45;14.77;;;2.47;;
81619;SDS011;71028;53.410;6.710;2023-12-20T05:33:11;12.82;;;3.45;;
81619;SDS011;71028;53.410;6.710;2023-12-20T05:35:37;16.30;;;2.75;;
81619;SDS011;71028;53.410;6.710;2023-12-20T05:38:03;10.88;;;2.72;;
81619;SDS011;71028;53.410;6.710;2023-12-20T05:40:29;12.40;;;2.63;;
81619;SDS011;71028;53.410;6.710;2023-12-20T05:42:55;10.55;;;2.22;;
81619;SDS011;71028;53.410;6.710;2023-12-20T05:45:21;11.95;;;2.20;;
81619;SDS011;71028;53.410;6.710;2023-12-20T05:47:47;13.43;;;2.58;;
81619;SDS011;71028;53.410;6.710;2023-12-20T05:50:13;9.98;;;3.05;;
81619;SDS011;71028;53.410;6.710;2023-12-20T05:52:39;11.20;;;2.38;;
81619;SDS011;71028;53.410;6.710;2023-12-20T05:55:06;14.25;;;2.63;;
81619;SDS011;71028;53.410;6.710;2023-12-20T05:57:32;15.93;;;3.30;;
81619;SDS011;71028;53.410;6.710;2023-12-20T05:59:58;13.50;;;3.08;;
81619;SDS011;71028;53.410;6.710;2023-12-20T06:02:24;8.82;;;2.15;;
81619;SDS011;71028;53.410;6.710;2023-12-20T06:04:50;8.73;;;2.83;;
81619;SDS011;71028;53.410;6.710;2023-12-20T06:07:16;16.45;;;2.92;;
81619;SDS011;71028;53.410;6.710;2023-12-20T06:09:42;12.35;;;3.78;;
81619;SDS011;71028;53.410;6.710;2023-12-20T06:12:08;8.38;;;2.45;;
81619;SDS011;71028;53.410;6.710;2023-12-20T06:14:35;19.55;;;3.35;;
81619;SDS011;71028;53.410;6.710;2023-12-20T06:17:01;12.85;;;2.55;;
81619;SDS011;71028;53.410;6.710;2023-12-20T06:19:27;18.58;;;4.50;;
81619;SDS011;71028;53.410;6.710;2023-12-20T06:21:53;14.73;;;2.33;;
81619;SDS011;71028;53.410;6.710;2023-12-20T06:24:19;12.88;;;2.88;;
81619;SDS011;71028;53.410;6.710;2023-12-20T06:26:46;16.60;;;3.28;;
81619;SDS011;71028;53.410;6.710;2023-12-20T06:29:12;23.83;;;3.00;;
81619;SDS011;71028;53.410;6.710;2023-12-20T06:31:38;14.73;;;2.47;;
81619;SDS011;71028;53.410;6.710;2023-12-20T06:34:04;10.38;;;2.90;;
81619;SDS011;71028;53.410;6.710;2023-12-20T06:36:30;12.82;;;2.55;;
81619;SDS011;71028;53.410;6.710;2023-12-20T06:38:56;18.50;;;3.70;;
81619;SDS011;71028;53.410;6.710;2023-12-20T06:41:23;16.50;;;3.20;;
81619;SDS011;71028;53.410;6.710;2023-12-20T06:43:49;11.02;;;3.08;;
81619;SDS011;71028;53.410;6.710;2023-12-20T06:46:16;10.85;;;3.40;;
81619;SDS011;71028;53.410;6.710;2023-12-20T06:48:42;9.52;;;2.90;;
81619;SDS011;71028;53.410;6.710;2023-12-20T06:51:11;13.98;;;3.40;;
81619;SDS011;71028;53.410;6.710;2023-12-20T06:53:38;11.77;;;3.33;;
81619;SDS011;71028;53.410;6.710;2023-12-20T06:56:04;23.25;;;3.25;;
81619;SDS011;71028;53.410;6.710;2023-12-20T06:58:30;21.27;;;3.40;;
81619;SDS011;71028;53.410;6.710;2023-12-20T07:00:56;8.48;;;2.70;;
81619;SDS011;71028;53.410;6.710;2023-12-20T07:03:22;13.65;;;3.15;;
81619;SDS011;71028;53.410;6.710;2023-12-20T07:05:48;8.98;;;2.40;;
81619;SDS011;71028;53.410;6.710;2023-12-20T07:08:14;13.73;;;3.45;;
81619;SDS011;71028;53.410;6.710;2023-12-20T07:10:40;19.65;;;3.58;;
81619;SDS011;71028;53.410;6.710;2023-12-20T07:13:06;14.90;;;3.83;;
81619;SDS011;71028;53.410;6.710;2023-12-20T07:15:33;14.30;;;3.13;;
81619;SDS011;71028;53.410;6.710;2023-12-20T07:17:59;14.45;;;2.85;;
81619;SDS011;71028;53.410;6.710;2023-12-20T07:20:25;15.68;;;2.97;;
81619;SDS011;71028;53.410;6.710;2023-12-20T07:22:51;17.27;;;3.00;;
81619;SDS011;71028;53.410;6.710;2023-12-20T07:25:17;13.80;;;3.15;;
81619;SDS011;71028;53.410;6.710;2023-12-20T07:27:45;16.23;;;2.83;;
81619;SDS011;71028;53.410;6.710;2023-12-20T07:30:11;15.95;;;3.42;;
81619;SDS011;71028;53.410;6.710;2023-12-20T07:32:37;13.95;;;3.42;;
81619;SDS011;71028;53.410;6.710;2023-12-20T07:35:03;15.88;;;2.85;;
81619;SDS011;71028;53.410;6.710;2023-12-20T07:37:30;13.82;;;3.95;;
81619;SDS011;71028;53.410;6.710;2023-12-20T07:39:56;11.77;;;3.25;;
81619;SDS011;71028;53.410;6.710;2023-12-20T07:42:22;17.38;;;3.25;;
81619;SDS011;71028;53.410;6.710;2023-12-20T07:44:48;9.60;;;3.47;;
81619;SDS011;71028;53.410;6.710;2023-12-20T07:47:14;13.27;;;2.75;;
81619;SDS011;71028;53.410;6.710;2023-12-20T07:49:44;13.88;;;2.65;;
81619;SDS011;71028;53.410;6.710;2023-12-20T07:52:10;12.40;;;2.65;;
81619;SDS011;71028;53.410;6.710;2023-12-20T07:54:36;18.25;;;3.33;;
81619;SDS011;71028;53.410;6.710;2023-12-20T07:57:02;21.27;;;3.15;;
81619;SDS011;71028;53.410;6.710;2023-12-20T07:59:28;17.67;;;4.43;;
81619;SDS011;71028;53.410;6.710;2023-12-20T08:01:54;19.85;;;3.50;;
81619;SDS011;71028;53.410;6.710;2023-12-20T08:04:20;17.10;;;3.58;;
81619;SDS011;71028;53.410;6.710;2023-12-20T08:06:47;18.83;;;2.92;;
81619;SDS011;71028;53.410;6.710;2023-12-20T08:09:13;14.48;;;3.35;;
81619;SDS011;71028;53.410;6.710;2023-12-20T08:11:39;9.07;;;2.75;;
81619;SDS011;71028;53.410;6.710;2023-12-20T08:14:05;11.55;;;2.65;;
81619;SDS011;71028;53.410;6.710;2023-12-20T08:16:31;7.30;;;1.92;;
81619;SDS011;71028;53.410;6.710;2023-12-20T08:18:57;8.48;;;1.40;;
81619;SDS011;71028;53.410;6.710;2023-12-20T08:21:23;9.35;;;1.73;;
81619;SDS011;71028;53.410;6.710;2023-12-20T08:23:49;8.80;;;1.85;;
81619;SDS011;71028;53.410;6.710;2023-12-20T08:26:18;5.70;;;1.35;;
81619;SDS011;71028;53.410;6.710;2023-12-20T08:28:45;8.30;;;1.40;;
81619;SDS011;71028;53.410;6.710;2023-12-20T08:31:14;4.70;;;1.10;;
81619;SDS011;71028;53.410;6.710;2023-12-20T08:33:41;8.27;;;1.73;;
81619;SDS011;71028;53.410;6.710;2023-12-20T08:36:07;10.88;;;1.50;;
81619;SDS011;71028;53.410;6.710;2023-12-20T08:38:33;6.32;;;0.98;;
81619;SDS011;71028;53.410;6.710;2023-12-20T08:40:59;7.70;;;0.90;;
81619;SDS011;71028;53.410;6.710;2023-12-20T08:43:26;3.95;;;1.10;;
81619;SDS011;71028;53.410;6.710;2023-12-20T08:45:52;3.08;;;1.38;;
81619;SDS011;71028;53.410;6.710;2023-12-20T08:48:18;5.88;;;1.20;;
81619;SDS011;71028;53.410;6.710;2023-12-20T08:50:44;3.55;;;0.93;;
81619;SDS011;71028;53.410;6.710;2023-12-20T08:53:10;4.72;;;0.90;;
81619;SDS011;71028;53.410;6.710;2023-12-20T08:55:37;5.30;;;0.90;;
81619;SDS011;71028;53.410;6.710;2023-12-20T08:58:03;3.75;;;1.25;;
81619;SDS011;71028;53.410;6.710;2023-12-20T09:00:32;8.73;;;1.30;;
81619;SDS011;71028;53.410;6.710;2023-12-20T09:02:58;4.90;;;1.23;;
81619;SDS011;71028;53.410;6.710;2023-12-20T09:05:24;4.10;;;1.23;;
81619;SDS011;71028;53.410;6.710;2023-12-20T09:07:50;2.25;;;0.75;;
81619;SDS011;71028;53.410;6.710;2023-12-20T09:10:16;4.38;;;1.08;;
81619;SDS011;71028;53.410;6.710;2023-12-20T09:12:47;3.10;;;0.80;;
81619;SDS011;71028;53.410;6.710;2023-12-20T09:15:13;5.13;;;1.30;;
81619;SDS011;71028;53.410;6.710;2023-12-20T09:17:40;9.95;;;1.17;;
81619;SDS011;71028;53.410;6.710;2023-12-20T09:20:06;3.95;;;1.27;;
81619;SDS011;71028;53.410;6.710;2023-12-20T09:22:33;6.78;;;1.75;;
81619;SDS011;71028;53.410;6.710;2023-12-20T09:24:59;4.80;;;1.50;;
81619;SDS011;71028;53.410;6.710;2023-12-20T09:27:27;7.22;;;1.33;;
81619;SDS011;71028;53.410;6.710;2023-12-20T09:29:53;7.68;;;1.50;;
81619;SDS011;71028;53.410;6.710;2023-12-20T09:32:19;5.88;;;1.50;;
81619;SDS011;71028;53.410;6.710;2023-12-20T09:34:48;4.30;;;1.17;;
81619;SDS011;71028;53.410;6.710;2023-12-20T09:37:14;6.90;;;1.60;;
81619;SDS011;71028;53.410;6.710;2023-12-20T09:39:40;5.47;;;1.10;;
81619;SDS011;71028;53.410;6.710;2023-12-20T09:42:06;7.40;;;1.40;;
81619;SDS011;71028;53.410;6.710;2023-12-20T09:44:33;5.75;;;1.50;;
81619;SDS011;71028;53.410;6.710;2023-12-20T09:47:02;7.07;;;1.25;;
81619;SDS011;71028;53.410;6.710;2023-12-20T09:49:28;4.07;;;1.10;;
81619;SDS011;71028;53.410;6.710;2023-12-20T09:51:55;8.07;;;1.40;;
81619;SDS011;71028;53.410;6.710;2023-12-20T09:54:22;9.82;;;2.05;;
81619;SDS011;71028;53.410;6.710;2023-12-20T09:56:48;9.05;;;1.70;;
81619;SDS011;71028;53.410;6.710;2023-12-20T09:59:14;7.20;;;1.90;;
81619;SDS011;71028;53.410;6.710;2023-12-20T10:01:40;5.93;;;1.58;;
81619;SDS011;71028;53.410;6.710;2023-12-20T10:04:08;9.73;;;1.80;;
81619;SDS011;71028;53.410;6.710;2023-12-20T10:06:36;11.25;;;1.98;;
81619;SDS011;71028;53.410;6.710;2023-12-20T10:09:02;10.88;;;1.67;;
81619;SDS011;71028;53.410;6.710;2023-12-20T10:11:29;13.65;;;2.10;;
81619;SDS011;71028;53.410;6.710;2023-12-20T10:13:58;13.25;;;2.78;;
81619;SDS011;71028;53.410;6.710;2023-12-20T10:16:27;8.40;;;1.83;;
81619;SDS011;71028;53.410;6.710;2023-12-20T10:18:54;13.30;;;2.20;;
81619;SDS011;71028;53.410;6.710;2023-12-20T10:21:20;8.18;;;1.90;;
81619;SDS011;71028;53.410;6.710;2023-12-20T10:23:47;8.25;;;1.90;;
81619;SDS011;71028;53.410;6.710;2023-12-20T10:26:25;10.13;;;2.03;;
81619;SDS011;71028;53.410;6.710;2023-12-20T10:28:56;7.95;;;1.77;;
81619;SDS011;71028;53.410;6.710;2023-12-20T10:31:40;12.77;;;1.88;;
81619;SDS011;71028;53.410;6.710;2023-12-20T10:34:07;12.40;;;2.50;;
81619;SDS011;71028;53.410;6.710;2023-12-20T10:36:33;15.45;;;2.58;;
81619;SDS011;71028;53.410;6.710;2023-12-20T10:39:01;8.68;;;2.13;;
81619;SDS011;71028;53.410;6.710;2023-12-20T10:41:29;10.85;;;2.80;;
81619;SDS011;71028;53.410;6.710;2023-12-20T10:44:03;11.02;;;3.15;;
81619;SDS011;71028;53.410;6.710;2023-12-20T10:46:32;12.05;;;2.08;;
81619;SDS011;71028;53.410;6.710;2023-12-20T10:48:58;13.45;;;2.15;;
81619;SDS011;71028;53.410;6.710;2023-12-20T10:51:25;10.15;;;2.78;;
81619;SDS011;71028;53.410;6.710;2023-12-20T10:53:57;11.23;;;2.50;;
81619;SDS011;71028;53.410;6.710;2023-12-20T10:56:23;12.70;;;2.95;;
81619;SDS011;71028;53.410;6.710;2023-12-20T10:58:50;7.95;;;2.17;;
81619;SDS011;71028;53.410;6.710;2023-12-20T11:01:16;10.32;;;2.05;;
81619;SDS011;71028;53.410;6.710;2023-12-20T11:03:50;8.13;;;2.15;;
81619;SDS011;71028;53.410;6.710;2023-12-20T11:08:52;12.15;;;2.75;;
81619;SDS011;71028;53.410;6.710;2023-12-20T11:11:29;15.07;;;2.35;;
81619;SDS011;71028;53.410;6.710;2023-12-20T11:14:08;9.82;;;1.98;;
81619;SDS011;71028;53.410;6.710;2023-12-20T11:16:37;8.80;;;2.13;;
81619;SDS011;71028;53.410;6.710;2023-12-20T11:19:06;10.10;;;2.03;;
81619;SDS011;71028;53.410;6.710;2023-12-20T11:21:32;12.35;;;2.40;;
81619;SDS011;71028;53.410;6.710;2023-12-20T11:23:59;7.97;;;1.55;;
81619;SDS011;71028;53.410;6.710;2023-12-20T11:26:29;8.35;;;1.80;;
81619;SDS011;71028;53.410;6.710;2023-12-20T11:29:40;11.43;;;2.95;;
81619;SDS011;71028;53.410;6.710;2023-12-20T11:31:41;10.82;;;2.00;;
81619;SDS011;71028;53.410;6.710;2023-12-20T11:34:14;8.30;;;2.05;;
81619;SDS011;71028;53.410;6.710;2023-12-20T11:36:40;15.23;;;2.00;;
81619;SDS011;71028;53.410;6.710;2023-12-20T11:39:06;15.38;;;2.08;;
81619;SDS011;71028;53.410;6.710;2023-12-20T11:41:35;12.38;;;1.98;;
81619;SDS011;71028;53.410;6.710;2023-12-20T11:44:02;11.20;;;2.45;;
81619;SDS011;71028;53.410;6.710;2023-12-20T11:46:30;17.67;;;2.45;;
81619;SDS011;71028;53.410;6.710;2023-12-20T11:48:56;17.35;;;3.00;;
81619;SDS011;71028;53.410;6.710;2023-12-20T11:51:22;14.45;;;2.30;;
81619;SDS011;71028;53.410;6.710;2023-12-20T11:53:51;15.95;;;2.72;;
81619;SDS011;71028;53.410;6.710;2023-12-20T11:56:18;11.50;;;2.78;;
81619;SDS011;71028;53.410;6.710;2023-12-20T11:58:44;14.13;;;2.47;;
81619;SDS011;71028;53.410;6.710;2023-12-20T12:01:10;11.95;;;2.13;;
81619;SDS011;71028;53.410;6.710;2023-12-20T12:03:36;11.85;;;2.58;;
81619;SDS011;71028;53.410;6.710;2023-12-20T12:06:02;10.48;;;2.25;;
81619;SDS011;71028;53.410;6.710;2023-12-20T12:08:29;11.85;;;2.35;;
81619;SDS011;71028;53.410;6.710;2023-12-20T12:10:55;9.75;;;2.42;;
81619;SDS011;71028;53.410;6.710;2023-12-20T12:13:21;12.13;;;2.15;;
81619;SDS011;71028;53.410;6.710;2023-12-20T12:15:48;9.05;;;1.80;;
81619;SDS011;71028;53.410;6.710;2023-12-20T12:18:15;13.23;;;2.38;;
81619;SDS011;71028;53.410;6.710;2023-12-20T12:20:42;16.35;;;3.83;;
81619;SDS011;71028;53.410;6.710;2023-12-20T12:23:08;8.50;;;2.05;;
81619;SDS011;71028;53.410;6.710;2023-12-20T12:25:37;8.32;;;2.05;;
81619;SDS011;71028;53.410;6.710;2023-12-20T12:28:03;7.95;;;1.65;;
81619;SDS011;71028;53.410;6.710;2023-12-20T12:30:29;7.95;;;2.13;;
81619;SDS011;71028;53.410;6.710;2023-12-20T12:32:55;12.35;;;2.00;;
81619;SDS011;71028;53.410;6.710;2023-12-20T12:35:22;10.35;;;1.80;;
81619;SDS011;71028;53.410;6.710;2023-12-20T12:37:49;9.10;;;1.83;;
81619;SDS011;71028;53.410;6.710;2023-12-20T12:40:16;10.68;;;1.77;;
81619;SDS011;71028;53.410;6.710;2023-12-20T12:42:43;8.65;;;1.65;;
81619;SDS011;71028;53.410;6.710;2023-12-20T12:45:09;5.93;;;1.48;;
81619;SDS011;71028;53.410;6.710;2023-12-20T12:47:39;5.82;;;1.80;;
81619;SDS011;71028;53.410;6.710;2023-12-20T12:50:05;8.45;;;1.75;;
81619;SDS011;71028;53.410;6.710;2023-12-20T12:52:31;9.25;;;1.60;;
81619;SDS011;71028;53.410;6.710;2023-12-20T12:54:57;7.85;;;1.70;;
81619;SDS011;71028;53.410;6.710;2023-12-20T12:57:23;9.68;;;1.90;;
81619;SDS011;71028;53.410;6.710;2023-12-20T12:59:49;7.45;;;1.30;;
81619;SDS011;71028;53.410;6.710;2023-12-20T13:02:16;11.40;;;2.17;;
81619;SDS011;71028;53.410;6.710;2023-12-20T13:04:42;9.90;;;1.95;;
81619;SDS011;71028;53.410;6.710;2023-12-20T13:07:09;6.68;;;1.25;;
81619;SDS011;71028;53.410;6.710;2023-12-20T13:09:36;6.25;;;1.55;;
81619;SDS011;71028;53.410;6.710;2023-12-20T13:12:02;11.75;;;1.80;;
81619;SDS011;71028;53.410;6.710;2023-12-20T13:14:30;7.53;;;1.70;;
81619;SDS011;71028;53.410;6.710;2023-12-20T13:16:57;13.60;;;2.25;;
81619;SDS011;71028;53.410;6.710;2023-12-20T13:19:23;4.97;;;1.50;;
81619;SDS011;71028;53.410;6.710;2023-12-20T13:21:49;9.80;;;2.35;;
81619;SDS011;71028;53.410;6.710;2023-12-20T13:24:15;10.25;;;2.00;;
81619;SDS011;71028;53.410;6.710;2023-12-20T13:26:41;9.80;;;2.20;;
81619;SDS011;71028;53.410;6.710;2023-12-20T13:29:07;5.13;;;1.73;;
81619;SDS011;71028;53.410;6.710;2023-12-20T13:31:33;10.35;;;2.22;;
81619;SDS011;71028;53.410;6.710;2023-12-20T13:34:01;14.27;;;1.80;;
81619;SDS011;71028;53.410;6.710;2023-12-20T13:36:27;6.75;;;2.17;;
81619;SDS011;71028;53.410;6.710;2023-12-20T13:38:53;5.68;;;1.60;;
81619;SDS011;71028;53.410;6.710;2023-12-20T13:41:19;7.85;;;1.58;;
81619;SDS011;71028;53.410;6.710;2023-12-20T13:43:45;6.60;;;1.60;;
81619;SDS011;71028;53.410;6.710;2023-12-20T13:46:11;11.88;;;1.85;;
81619;SDS011;71028;53.410;6.710;2023-12-20T13:48:39;6.57;;;1.63;;
81619;SDS011;71028;53.410;6.710;2023-12-20T13:51:05;9.00;;;1.58;;
81619;SDS011;71028;53.410;6.710;2023-12-20T13:53:31;7.78;;;2.10;;
81619;SDS011;71028;53.410;6.710;2023-12-20T13:55:57;5.70;;;1.35;;
81619;SDS011;71028;53.410;6.710;2023-12-20T13:58:24;4.95;;;1.45;;
81619;SDS011;71028;53.410;6.710;2023-12-20T14:00:50;10.07;;;1.52;;
81619;SDS011;71028;53.410;6.710;2023-12-20T14:03:17;10.18;;;2.47;;
81619;SDS011;71028;53.410;6.710;2023-12-20T14:05:44;4.80;;;1.55;;
81619;SDS011;71028;53.410;6.710;2023-12-20T14:08:10;8.07;;;1.52;;
81619;SDS011;71028;53.410;6.710;2023-12-20T14:10:36;6.43;;;1.40;;
81619;SDS011;71028;53.410;6.710;2023-12-20T14:13:03;6.63;;;1.42;;
81619;SDS011;71028;53.410;6.710;2023-12-20T14:15:30;4.88;;;1.30;;
81619;SDS011;71028;53.410;6.710;2023-12-20T14:18:02;7.65;;;1.50;;
81619;SDS011;71028;53.410;6.710;2023-12-20T14:20:28;4.35;;;1.35;;
81619;SDS011;71028;53.410;6.710;2023-12-20T14:22:54;5.45;;;1.73;;
81619;SDS011;71028;53.410;6.710;2023-12-20T14:25:20;4.38;;;1.63;;
81619;SDS011;71028;53.410;6.710;2023-12-20T14:27:48;7.30;;;1.40;;
81619;SDS011;71028;53.410;6.710;2023-12-20T14:30:14;4.40;;;1.05;;
81619;SDS011;71028;53.410;6.710;2023-12-20T14:32:41;7.45;;;1.35;;
81619;SDS011;71028;53.410;6.710;2023-12-20T14:35:08;8.32;;;1.52;;
81619;SDS011;71028;53.410;6.710;2023-12-20T14:37:34;3.40;;;1.20;;
81619;SDS011;71028;53.410;6.710;2023-12-20T14:40:04;8.98;;;1.42;;